(°C)
(°C)
B
B
BKB
BKB
KB
KB
KB
(km/saat)
10-13
10-12
11-12
12-15
14-18
14-19
14-20
(mm)
0
0
0
0
0
0
0
(%)
0
0
0
0
0
0
0

Güneşin açısı

/ -14.7°
sun-icon
UV 1
07:11
17:37
Hilal (167°)
17:34
05:19

53.5°K 50.15°D (UWWW) için METAR

Zaman Koşullar Sıcaklık/
Çiy noktası
Rüzgar Görünürlük Hava Bulutlar Basınç Değiştir Ham
VFR 6°C / 1°C 280º variable 230º to 300º 6kt >10km - Scattered Clouds 3300ft 1008 No Significant change. Runway 33: Wet or puddles, 51-100% contamination with 1mm, friction coefficient 0.50. UWWW 190100Z 28003MPS 230V300 9999 SCT033 06/01 Q1008 R33/290150 NOSIG RMK QFE745/0994
VFR 6°C / 1°C 290º 6kt >10km - Scattered Clouds 3300ft 1008 No Significant change. Runway 33: Wet or puddles, 51-100% contamination with 1mm, friction coefficient 0.50. UWWW 190030Z 29003MPS 9999 SCT033 06/01 Q1008 R33/290150 NOSIG RMK QFE745/0994
VFR 7°C / 2°C 290º variable 250º to 320º 6kt >10km - Scattered Clouds 3300ft 1008 No Significant change. Runway 33: Wet or puddles, 51-100% contamination with 1mm, friction coefficient 0.50. UWWW 190000Z 29003MPS 250V320 9999 SCT033 07/02 Q1008 R33/290150 NOSIG RMK QFE745/0994
VFR 7°C / 2°C 300º 6kt >10km - Scattered Clouds 3300ft 1008 No Significant change. Runway 33: Wet or puddles, 51-100% contamination with 1mm, friction coefficient 0.50. UWWW 182330Z 30003MPS 9999 SCT033 07/02 Q1008 R33/290150 NOSIG RMK QFE745/0994
VFR 8°C / 3°C 280º variable 250º to 310º 6kt >10km - Scattered Clouds 3300ft 1008 No Significant change. Runway 33: Wet or puddles, 51-100% contamination with 1mm, friction coefficient 0.50. UWWW 182300Z 28003MPS 250V310 9999 SCT033 08/03 Q1008 R33/290150 NOSIG RMK QFE745/0994
VFR 8°C / 3°C 290º 6kt >10km - Scattered Clouds 3300ft 1007 No Significant change. Runway 33: Wet or puddles, 51-100% contamination with 1mm, friction coefficient 0.50. UWWW 182230Z 29003MPS 9999 SCT033 08/03 Q1007 R33/290150 NOSIG RMK QFE745/0993
VFR 8°C / 4°C 290º variable 250º to 310º 6kt >10km - Scattered Clouds 3300ft 1007 No Significant change. Runway 33: Wet or puddles, 51-100% contamination with 1mm, friction coefficient 0.50. UWWW 182200Z 29003MPS 250V310 9999 SCT033 08/04 Q1007 R33/290150 NOSIG RMK QFE745/0993
VFR 9°C / 5°C 290º variable 250º to 310º 6kt >10km - Scattered Clouds 3300ft 1007 No Significant change. Runway 33: Wet or puddles, 51-100% contamination with 1mm, friction coefficient 0.50. UWWW 182130Z 29003MPS 250V310 9999 SCT033 09/05 Q1007 R33/290150 NOSIG RMK QFE745/0993
VFR 9°C / 5°C 280º variable 250º to 310º 6kt >10km - Scattered Clouds 3300ft 1007 No Significant change. Runway 33: Wet or puddles, 51-100% contamination with 1mm, friction coefficient 0.50. UWWW 182100Z 28003MPS 250V310 9999 SCT033 09/05 Q1007 R33/290150 NOSIG RMK QFE745/0993
VFR 8°C / 5°C 280º 8kt >10km - Scattered Clouds 3300ft 1007 No Significant change. Runway 15: Wet or puddles, 51-100% contamination with 1mm, friction coefficient 0.50. UWWW 182030Z 28004MPS 9999 SCT033 08/05 Q1007 R15/290150 NOSIG RMK QFE744/0992
VFR 8°C / 5°C 270º 8kt >10km - Scattered Clouds 2600ft 1007 No Significant change. Runway 15: Wet or puddles, 51-100% contamination with 1mm, friction coefficient 0.50. UWWW 182000Z 27004MPS 9999 SCT026 08/05 Q1007 R15/290150 NOSIG RMK QFE744/0992
MVFR 8°C / 5°C 260º 6kt >10km - Broken Clouds 1700ft 1007 No Significant change. Runway 15: Wet or puddles, 51-100% contamination with 1mm, friction coefficient 0.50. UWWW 181930Z 26003MPS 9999 BKN017 08/05 Q1007 R15/290150 NOSIG RMK QFE744/0992
VFR 8°C / 5°C 250º 6kt >10km - Scattered Clouds 3300ft 1007 No Significant change. Runway 15: Wet or puddles, 51-100% contamination with 1mm, friction coefficient 0.50. UWWW 181900Z 25003MPS 9999 SCT033 08/05 Q1007 R15/290150 NOSIG RMK QFE744/0992
VFR 8°C / 6°C 270º 6kt >10km - Scattered Clouds 3300ft 1007 No Significant change. Runway 15: Wet or puddles, 51-100% contamination with 1mm, friction coefficient 0.50. UWWW 181830Z 27003MPS 9999 SCT033 08/06 Q1007 R15/290150 NOSIG RMK QFE744/0992
VFR 8°C / 5°C 240º 6kt >10km - Scattered Clouds 3300ft 1007 No Significant change. Runway 15: Wet or puddles, 51-100% contamination with 1mm, friction coefficient 0.50. UWWW 181800Z 24003MPS 9999 SCT033 08/05 Q1007 R15/290150 NOSIG RMK QFE744/0992
VFR 8°C / 6°C 250º 6kt >10km - Scattered Clouds 3300ft 1007 No Significant change. Runway 15: Wet or puddles, 51-100% contamination with 1mm, friction coefficient 0.50. UWWW 181730Z 25003MPS 9999 SCT033 08/06 Q1007 R15/290150 NOSIG RMK QFE744/0992
VFR 9°C / 6°C 260º 6kt >10km - Scattered Clouds 3300ft 1007 No Significant change. Runway 15: Wet or puddles, 51-100% contamination with 1mm, friction coefficient 0.50. UWWW 181700Z 26003MPS 9999 SCT033 09/06 Q1007 R15/290150 NOSIG RMK QFE744/0992
VFR 9°C / 6°C variable 2kt >10km - Scattered Clouds 3300ft 1007 No Significant change. Runway 15: Wet or puddles, 51-100% contamination with 1mm, friction coefficient 0.50. UWWW 181630Z VRB01MPS 9999 SCT033 09/06 Q1007 R15/290150 NOSIG RMK QFE744/0992
VFR 9°C / 6°C 250º variable 220º to 280º 4kt >10km - Scattered Clouds 3300ft 1007 No Significant change. Runway 15: Wet or puddles, 51-100% contamination with 1mm, friction coefficient 0.50. UWWW 181600Z 25002MPS 220V280 9999 SCT033 09/06 Q1007 R15/290150 NOSIG RMK QFE744/0992
VFR 9°C / 6°C 200º 4kt >10km - Scattered Clouds 3300ft 1007 No Significant change. Runway 15: Wet or puddles, 51-100% contamination with 1mm, friction coefficient 0.50. UWWW 181530Z 20002MPS 9999 SCT033 09/06 Q1007 R15/290150 NOSIG RMK QFE744/0992
VFR 9°C / 7°C variable 0kt >10km - Scattered Clouds 3300ft 1008 No Significant change. Runway 15: Wet or puddles, 51-100% contamination with 1mm, friction coefficient 0.50. UWWW 181500Z 00000MPS 9999 SCT033 09/07 Q1008 R15/290150 NOSIG RMK QFE744/0992
VFR 8°C / 7°C 130º 6kt >10km - Scattered Clouds 3300ft 1007 No Significant change. Runway 15: Wet or puddles, 51-100% contamination with 1mm, friction coefficient 0.50. UWWW 181430Z 13003MPS 9999 SCT033 08/07 Q1007 R15/290150 NOSIG RMK QFE744/0992
VFR 9°C / 7°C 120º 4kt >10km - Scattered Clouds 3300ft 1008 No Significant change. Runway 15: Wet or puddles, 51-100% contamination with 1mm, friction coefficient 0.50. UWWW 181400Z 12002MPS 9999 SCT033 09/07 Q1008 R15/290150 NOSIG RMK QFE744/0993
VFR 9°C / 7°C 140º 6kt >10km - Scattered Clouds 3300ft 1008 No Significant change. Runway 15: Wet or puddles, 51-100% contamination with 1mm, friction coefficient 0.50. UWWW 181330Z 14003MPS 9999 SCT033 09/07 Q1008 R15/290150 NOSIG RMK QFE744/0993

VFR

6°C / 1°C

[Daha fazla]
Rüzgar 280º variable 230º to 300º 6kt
Görünürlük >10km
Hava -
Bulutlar Scattered Clouds 3300ft
Basınç 1008
Değiştir No Significant change. Runway 33: Wet or puddles, 51-100% contamination with 1mm, friction coefficient 0.50.
Ham UWWW 190100Z 28003MPS 230V300 9999 SCT033 06/01 Q1008 R33/290150 NOSIG RMK QFE745/0994

VFR

6°C / 1°C

[Daha fazla]
Rüzgar 290º 6kt
Görünürlük >10km
Hava -
Bulutlar Scattered Clouds 3300ft
Basınç 1008
Değiştir No Significant change. Runway 33: Wet or puddles, 51-100% contamination with 1mm, friction coefficient 0.50.
Ham UWWW 190030Z 29003MPS 9999 SCT033 06/01 Q1008 R33/290150 NOSIG RMK QFE745/0994

VFR

7°C / 2°C

[Daha fazla]
Rüzgar 290º variable 250º to 320º 6kt
Görünürlük >10km
Hava -
Bulutlar Scattered Clouds 3300ft
Basınç 1008
Değiştir No Significant change. Runway 33: Wet or puddles, 51-100% contamination with 1mm, friction coefficient 0.50.
Ham UWWW 190000Z 29003MPS 250V320 9999 SCT033 07/02 Q1008 R33/290150 NOSIG RMK QFE745/0994

VFR

7°C / 2°C

[Daha fazla]
Rüzgar 300º 6kt
Görünürlük >10km
Hava -
Bulutlar Scattered Clouds 3300ft
Basınç 1008
Değiştir No Significant change. Runway 33: Wet or puddles, 51-100% contamination with 1mm, friction coefficient 0.50.
Ham UWWW 182330Z 30003MPS 9999 SCT033 07/02 Q1008 R33/290150 NOSIG RMK QFE745/0994

VFR

8°C / 3°C

[Daha fazla]
Rüzgar 280º variable 250º to 310º 6kt
Görünürlük >10km
Hava -
Bulutlar Scattered Clouds 3300ft
Basınç 1008
Değiştir No Significant change. Runway 33: Wet or puddles, 51-100% contamination with 1mm, friction coefficient 0.50.
Ham UWWW 182300Z 28003MPS 250V310 9999 SCT033 08/03 Q1008 R33/290150 NOSIG RMK QFE745/0994

VFR

8°C / 3°C

[Daha fazla]
Rüzgar 290º 6kt
Görünürlük >10km
Hava -
Bulutlar Scattered Clouds 3300ft
Basınç 1007
Değiştir No Significant change. Runway 33: Wet or puddles, 51-100% contamination with 1mm, friction coefficient 0.50.
Ham UWWW 182230Z 29003MPS 9999 SCT033 08/03 Q1007 R33/290150 NOSIG RMK QFE745/0993

VFR

8°C / 4°C

[Daha fazla]
Rüzgar 290º variable 250º to 310º 6kt
Görünürlük >10km
Hava -
Bulutlar Scattered Clouds 3300ft
Basınç 1007
Değiştir No Significant change. Runway 33: Wet or puddles, 51-100% contamination with 1mm, friction coefficient 0.50.
Ham UWWW 182200Z 29003MPS 250V310 9999 SCT033 08/04 Q1007 R33/290150 NOSIG RMK QFE745/0993

VFR

9°C / 5°C

[Daha fazla]
Rüzgar 290º variable 250º to 310º 6kt
Görünürlük >10km
Hava -
Bulutlar Scattered Clouds 3300ft
Basınç 1007
Değiştir No Significant change. Runway 33: Wet or puddles, 51-100% contamination with 1mm, friction coefficient 0.50.
Ham UWWW 182130Z 29003MPS 250V310 9999 SCT033 09/05 Q1007 R33/290150 NOSIG RMK QFE745/0993

VFR

9°C / 5°C

[Daha fazla]
Rüzgar 280º variable 250º to 310º 6kt
Görünürlük >10km
Hava -
Bulutlar Scattered Clouds 3300ft
Basınç 1007
Değiştir No Significant change. Runway 33: Wet or puddles, 51-100% contamination with 1mm, friction coefficient 0.50.
Ham UWWW 182100Z 28003MPS 250V310 9999 SCT033 09/05 Q1007 R33/290150 NOSIG RMK QFE745/0993

VFR

8°C / 5°C

[Daha fazla]
Rüzgar 280º 8kt
Görünürlük >10km
Hava -
Bulutlar Scattered Clouds 3300ft
Basınç 1007
Değiştir No Significant change. Runway 15: Wet or puddles, 51-100% contamination with 1mm, friction coefficient 0.50.
Ham UWWW 182030Z 28004MPS 9999 SCT033 08/05 Q1007 R15/290150 NOSIG RMK QFE744/0992

VFR

8°C / 5°C

[Daha fazla]
Rüzgar 270º 8kt
Görünürlük >10km
Hava -
Bulutlar Scattered Clouds 2600ft
Basınç 1007
Değiştir No Significant change. Runway 15: Wet or puddles, 51-100% contamination with 1mm, friction coefficient 0.50.
Ham UWWW 182000Z 27004MPS 9999 SCT026 08/05 Q1007 R15/290150 NOSIG RMK QFE744/0992

MVFR

8°C / 5°C

[Daha fazla]
Rüzgar 260º 6kt
Görünürlük >10km
Hava -
Bulutlar Broken Clouds 1700ft
Basınç 1007
Değiştir No Significant change. Runway 15: Wet or puddles, 51-100% contamination with 1mm, friction coefficient 0.50.
Ham UWWW 181930Z 26003MPS 9999 BKN017 08/05 Q1007 R15/290150 NOSIG RMK QFE744/0992

VFR

8°C / 5°C

[Daha fazla]
Rüzgar 250º 6kt
Görünürlük >10km
Hava -
Bulutlar Scattered Clouds 3300ft
Basınç 1007
Değiştir No Significant change. Runway 15: Wet or puddles, 51-100% contamination with 1mm, friction coefficient 0.50.
Ham UWWW 181900Z 25003MPS 9999 SCT033 08/05 Q1007 R15/290150 NOSIG RMK QFE744/0992

VFR

8°C / 6°C

[Daha fazla]
Rüzgar 270º 6kt
Görünürlük >10km
Hava -
Bulutlar Scattered Clouds 3300ft
Basınç 1007
Değiştir No Significant change. Runway 15: Wet or puddles, 51-100% contamination with 1mm, friction coefficient 0.50.
Ham UWWW 181830Z 27003MPS 9999 SCT033 08/06 Q1007 R15/290150 NOSIG RMK QFE744/0992

VFR

8°C / 5°C

[Daha fazla]
Rüzgar 240º 6kt
Görünürlük >10km
Hava -
Bulutlar Scattered Clouds 3300ft
Basınç 1007
Değiştir No Significant change. Runway 15: Wet or puddles, 51-100% contamination with 1mm, friction coefficient 0.50.
Ham UWWW 181800Z 24003MPS 9999 SCT033 08/05 Q1007 R15/290150 NOSIG RMK QFE744/0992

VFR

8°C / 6°C

[Daha fazla]
Rüzgar 250º 6kt
Görünürlük >10km
Hava -
Bulutlar Scattered Clouds 3300ft
Basınç 1007
Değiştir No Significant change. Runway 15: Wet or puddles, 51-100% contamination with 1mm, friction coefficient 0.50.
Ham UWWW 181730Z 25003MPS 9999 SCT033 08/06 Q1007 R15/290150 NOSIG RMK QFE744/0992

VFR

9°C / 6°C

[Daha fazla]
Rüzgar 260º 6kt
Görünürlük >10km
Hava -
Bulutlar Scattered Clouds 3300ft
Basınç 1007
Değiştir No Significant change. Runway 15: Wet or puddles, 51-100% contamination with 1mm, friction coefficient 0.50.
Ham UWWW 181700Z 26003MPS 9999 SCT033 09/06 Q1007 R15/290150 NOSIG RMK QFE744/0992

VFR

9°C / 6°C

[Daha fazla]
Rüzgar variable 2kt
Görünürlük >10km
Hava -
Bulutlar Scattered Clouds 3300ft
Basınç 1007
Değiştir No Significant change. Runway 15: Wet or puddles, 51-100% contamination with 1mm, friction coefficient 0.50.
Ham UWWW 181630Z VRB01MPS 9999 SCT033 09/06 Q1007 R15/290150 NOSIG RMK QFE744/0992

VFR

9°C / 6°C

[Daha fazla]
Rüzgar 250º variable 220º to 280º 4kt
Görünürlük >10km
Hava -
Bulutlar Scattered Clouds 3300ft
Basınç 1007
Değiştir No Significant change. Runway 15: Wet or puddles, 51-100% contamination with 1mm, friction coefficient 0.50.
Ham UWWW 181600Z 25002MPS 220V280 9999 SCT033 09/06 Q1007 R15/290150 NOSIG RMK QFE744/0992

VFR

9°C / 6°C

[Daha fazla]
Rüzgar 200º 4kt
Görünürlük >10km
Hava -
Bulutlar Scattered Clouds 3300ft
Basınç 1007
Değiştir No Significant change. Runway 15: Wet or puddles, 51-100% contamination with 1mm, friction coefficient 0.50.
Ham UWWW 181530Z 20002MPS 9999 SCT033 09/06 Q1007 R15/290150 NOSIG RMK QFE744/0992

VFR

9°C / 7°C

[Daha fazla]
Rüzgar variable 0kt
Görünürlük >10km
Hava -
Bulutlar Scattered Clouds 3300ft
Basınç 1008
Değiştir No Significant change. Runway 15: Wet or puddles, 51-100% contamination with 1mm, friction coefficient 0.50.
Ham UWWW 181500Z 00000MPS 9999 SCT033 09/07 Q1008 R15/290150 NOSIG RMK QFE744/0992

VFR

8°C / 7°C

[Daha fazla]
Rüzgar 130º 6kt
Görünürlük >10km
Hava -
Bulutlar Scattered Clouds 3300ft
Basınç 1007
Değiştir No Significant change. Runway 15: Wet or puddles, 51-100% contamination with 1mm, friction coefficient 0.50.
Ham UWWW 181430Z 13003MPS 9999 SCT033 08/07 Q1007 R15/290150 NOSIG RMK QFE744/0992

VFR

9°C / 7°C

[Daha fazla]
Rüzgar 120º 4kt
Görünürlük >10km
Hava -
Bulutlar Scattered Clouds 3300ft
Basınç 1008
Değiştir No Significant change. Runway 15: Wet or puddles, 51-100% contamination with 1mm, friction coefficient 0.50.
Ham UWWW 181400Z 12002MPS 9999 SCT033 09/07 Q1008 R15/290150 NOSIG RMK QFE744/0993

VFR

9°C / 7°C

[Daha fazla]
Rüzgar 140º 6kt
Görünürlük >10km
Hava -
Bulutlar Scattered Clouds 3300ft
Basınç 1008
Değiştir No Significant change. Runway 15: Wet or puddles, 51-100% contamination with 1mm, friction coefficient 0.50.
Ham UWWW 181330Z 14003MPS 9999 SCT033 09/07 Q1008 R15/290150 NOSIG RMK QFE744/0993

53.5°K 50.15°D (UWWW) için TAF

From till


Maximum Temperature 8ºC on . Minimum Temperature 5ºC on .
From till Wind 270º 6kt. Gust 17kt. Visibility 6000m. Broken Clouds 1600ft.
Temporarly from till Visibility 305.775m. Fog . Obscured Sky.
Temporarly from till Wind 320º 12kt. Gust 23kt.

Ham: TAF UWWW 182253Z 1900/1924 27003G09MPS 6000 BKN016 TX08/1910Z TN05/1903Z TEMPO 1900/1906 0300 FG VV002 TEMPO 1906/1924 32006G12MPS

53.5°K 50.15°D için şu anki uydu ve yağmur görüntüleri

Konum işaretleyici 53.5°K 50.15°D üzerine yerleştirilir. [Daha fazla]

Gerçek zamanlı uydu görüntüsü gündüz süresince görülür ışığı gece süresince kızılötesi ışınım ile birleştirir. Gece kızılötesi ışınım sıcaklık farklarını algılayabildiğinden dolayı görüntü karanlık değildir. Ancak düşük bulutları ve sisi yer sıcaklığından ayırmak zordur ve bu nedenle gece boyunca neredeyse görünmez olabilirler. Avrupa için Meteosat uydu görüntüleri gerçek zamanlı olarak her 5 dakikada bir güncellenir. GOES-16/GOES-17 (Kuzey ve Güney Amerika) ve Himawari (Asya) görüntüleri her 10 dakikada bir güncellenir.

Copyright 2021 EUMETSAT / meteoblue. / Copyright 2021 meteoblue

53.5°K 50.15°D için radar ve yağış nowcast

çiseleyen yağmur
Hafif
Orta
Ağır
Çok ağır
Selamlamak

Konum işaretleyicisi 53.5°K 50.15°D üzerine yerleştirilir. Bu animasyon son saat içerisindeki yağış radarını ve 1h tahminini gösterir. Radar için çiseleyen yağmur veya hafif kar yağışı görünmez olabilir. Yağış yoğunluğu açık maviden turuncuya değişen renk kodludur.